Time;durP1;ratioP1;P1;durP2;ratioP2;P2;SDS_P1;SDS_P2;PMS_P1;PMS_P2;Temp;Humidity;BMP_temperature;BMP_pressure;BME280_temperature;BME280_humidity;BME280_pressure;Samples;Min_cycle;Max_cycle;Signal;HPM_P1;HPM_P2
2023/10/13 00:01:59;;;;;;;11.33;5.30;;;17.80;99.90;;;;;;5059769;28;20247;-51
2023/10/13 00:04:29;;;;;;;9.73;4.87;;;17.70;99.90;;;;;;5063175;28;20189;-51
2023/10/13 00:06:58;;;;;;;6.47;5.30;;;17.80;99.90;;;;;;5060509;28;20204;-50
2023/10/13 00:09:32;;;;;;;12.40;5.40;;;17.70;99.90;;;;;;5064916;28;20216;-49
2023/10/13 00:12:04;;;;;;;10.00;5.53;;;17.80;99.90;;;;;;5064086;28;20310;-53
2023/10/13 00:14:33;;;;;;;9.27;5.57;;;17.70;99.90;;;;;;5060241;28;20217;-51
2023/10/13 00:17:04;;;;;;;9.60;6.00;;;17.70;99.90;;;;;;5060695;28;20240;-53
2023/10/13 00:19:38;;;;;;;11.90;5.47;;;17.70;99.90;;;;;;5065237;28;20280;-52
2023/10/13 00:22:11;;;;;;;9.53;5.70;;;17.80;99.90;;;;;;5061033;28;20203;-51
2023/10/13 00:24:45;;;;;;;8.67;5.40;;;17.70;99.90;;;;;;5068688;28;20219;-51
2023/10/13 00:30:22;;;;;;;11.47;5.23;;;17.80;99.90;;;;;;5062180;28;20227;-53
2023/10/13 00:32:54;;;;;;;6.37;5.07;;;17.80;99.90;;;;;;5064789;28;20212;-50
2023/10/13 00:35:28;;;;;;;18.97;6.27;;;17.80;99.90;;;;;;5062052;28;20228;-50
2023/10/13 00:37:59;;;;;;;8.13;5.33;;;17.80;99.90;;;;;;5067646;28;20212;-53
2023/10/13 00:40:42;;;;;;;7.63;5.67;;;17.80;99.90;;;;;;5067889;28;20197;-51
2023/10/13 00:45:59;;;;;;;7.63;6.00;;;17.80;99.90;;;;;;5063619;28;20259;-51
2023/10/13 00:48:32;;;;;;;11.07;6.57;;;17.70;99.90;;;;;;5066664;28;20224;-51
2023/10/13 00:51:06;;;;;;;11.33;7.47;;;17.80;99.90;;;;;;5066713;28;20216;-50
2023/10/13 00:53:37;;;;;;;13.17;7.77;;;17.90;99.90;;;;;;5071862;28;20280;-52
2023/10/13 00:56:07;;;;;;;14.53;8.07;;;17.90;99.90;;;;;;5065453;28;20226;-52
2023/10/13 00:58:38;;;;;;;15.87;8.10;;;17.90;99.90;;;;;;5063894;28;20218;-52
2023/10/13 01:01:18;;;;;;;16.47;8.70;;;17.90;99.90;;;;;;5068463;28;20269;-52
2023/10/13 01:03:49;;;;;;;14.27;9.00;;;17.90;99.90;;;;;;5065970;28;20825;-54
2023/10/13 01:06:19;;;;;;;16.17;9.67;;;17.90;99.90;;;;;;5067898;28;20232;-53
2023/10/13 01:08:51;;;;;;;18.40;10.03;;;17.90;99.90;;;;;;5066458;28;20310;-52
2023/10/13 01:11:23;;;;;;;20.20;10.47;;;17.90;99.90;;;;;;5065000;28;20220;-51
2023/10/13 01:13:53;;;;;;;23.87;11.00;;;18.00;99.90;;;;;;5066787;28;20248;-53
2023/10/13 01:16:23;;;;;;;20.80;11.73;;;17.90;99.90;;;;;;5071821;28;20193;-52
2023/10/13 01:18:52;;;;;;;22.00;12.33;;;17.90;99.90;;;;;;5066400;28;20279;-54
2023/10/13 01:21:20;;;;;;;26.33;14.93;;;17.90;99.90;;;;;;5063564;28;20728;-51
2023/10/13 01:23:50;;;;;;;27.53;15.60;;;18.00;99.90;;;;;;5065052;28;20215;-52
2023/10/13 01:26:23;;;;;;;29.87;16.43;;;17.90;99.90;;;;;;5069065;28;20234;-51
2023/10/13 01:28:54;;;;;;;34.47;16.27;;;17.90;99.90;;;;;;5062943;28;20221;-50
2023/10/13 01:31:26;;;;;;;27.63;16.60;;;18.00;99.90;;;;;;5068863;28;20753;-53
2023/10/13 01:33:58;;;;;;;31.30;17.70;;;18.10;99.90;;;;;;5067139;28;20307;-51
2023/10/13 01:36:27;;;;;;;28.00;16.53;;;18.10;99.90;;;;;;5062715;28;20566;-51
2023/10/13 01:39:01;;;;;;;31.83;17.20;;;18.10;99.90;;;;;;5066435;28;20220;-50
2023/10/13 01:41:31;;;;;;;30.93;17.70;;;18.10;99.90;;;;;;5066206;28;20630;-50
2023/10/13 01:43:59;;;;;;;36.13;18.33;;;18.10;99.90;;;;;;5067779;28;20314;-53
2023/10/13 01:46:28;;;;;;;27.30;17.37;;;18.20;99.90;;;;;;5066866;28;20188;-49
2023/10/13 01:48:57;;;;;;;31.70;18.03;;;18.20;99.90;;;;;;5068774;28;20191;-50
2023/10/13 01:51:28;;;;;;;32.13;19.43;;;18.20;99.90;;;;;;5065089;28;20232;-49
2023/10/13 01:53:58;;;;;;;33.70;18.97;;;18.20;99.90;;;;;;5065394;28;20239;-53
2023/10/13 01:56:29;;;;;;;36.47;19.50;;;18.20;99.90;;;;;;5069749;28;20702;-53
2023/10/13 01:58:59;;;;;;;37.60;20.07;;;18.20;99.90;;;;;;5066947;28;20285;-52
2023/10/13 02:01:34;;;;;;;37.37;20.57;;;18.20;99.90;;;;;;5064704;28;20195;-52
2023/10/13 02:04:03;;;;;;;37.17;20.27;;;18.30;99.90;;;;;;5061306;28;20207;-52
2023/10/13 02:06:33;;;;;;;35.87;20.13;;;18.30;99.90;;;;;;5068540;28;20235;-53
2023/10/13 02:09:10;;;;;;;40.47;19.77;;;18.30;99.90;;;;;;5066265;28;20234;-50
2023/10/13 02:11:39;;;;;;;37.47;20.30;;;18.30;99.90;;;;;;5068382;28;20223;-50
2023/10/13 02:14:07;;;;;;;31.73;19.57;;;18.30;99.90;;;;;;5065211;28;20224;-51
2023/10/13 02:16:36;;;;;;;31.50;18.77;;;18.30;99.90;;;;;;5063376;28;20222;-51
2023/10/13 02:19:05;;;;;;;33.47;18.87;;;18.30;99.90;;;;;;5076990;28;20629;-51
2023/10/13 02:21:38;;;;;;;31.13;18.50;;;18.30;99.90;;;;;;5058128;28;20231;-53
2023/10/13 02:24:13;;;;;;;29.93;16.83;;;18.30;99.90;;;;;;5067257;28;20227;-53
2023/10/13 02:26:41;;;;;;;32.13;17.17;;;18.30;99.90;;;;;;5070037;28;20220;-51
2023/10/13 02:29:12;;;;;;;29.47;16.07;;;18.30;99.90;;;;;;5070653;28;20224;-51
2023/10/13 02:31:42;;;;;;;28.97;16.53;;;18.30;99.90;;;;;;5069235;28;20224;-52
2023/10/13 02:34:13;;;;;;;32.50;16.17;;;18.30;99.90;;;;;;5068058;28;20204;-52
2023/10/13 02:36:48;;;;;;;29.10;16.00;;;18.30;99.90;;;;;;5067806;28;20281;-53
2023/10/13 02:39:24;;;;;;;33.00;16.20;;;18.30;99.90;;;;;;5063378;28;20215;-51
2023/10/13 02:41:53;;;;;;;27.03;15.77;;;18.40;99.90;;;;;;5067346;28;20220;-51
2023/10/13 02:44:27;;;;;;;31.10;15.50;;;18.30;99.90;;;;;;5066744;28;20211;-54
2023/10/13 02:46:55;;;;;;;23.00;14.93;;;18.30;99.90;;;;;;5065829;28;20607;-51
2023/10/13 02:49:26;;;;;;;26.30;15.27;;;18.20;99.90;;;;;;5062794;28;21053;-53
2023/10/13 02:51:55;;;;;;;24.93;14.60;;;18.30;99.90;;;;;;5062567;28;20284;-53
2023/10/13 02:54:30;;;;;;;24.53;13.93;;;18.20;99.90;;;;;;5065308;28;20215;-50
2023/10/13 02:56:59;;;;;;;28.10;14.20;;;18.30;99.90;;;;;;5069243;28;20230;-52
2023/10/13 02:59:38;;;;;;;22.10;13.87;;;18.30;99.90;;;;;;5066984;28;20223;-54
2023/10/13 03:02:17;;;;;;;29.67;14.47;;;18.20;99.90;;;;;;5067080;28;20249;-54
2023/10/13 03:04:46;;;;;;;22.47;13.30;;;18.20;99.90;;;;;;5063328;28;20694;-51
2023/10/13 03:07:22;;;;;;;23.60;14.17;;;18.30;99.90;;;;;;5064981;28;20276;-51
2023/10/13 03:09:52;;;;;;;23.37;13.97;;;18.30;99.90;;;;;;5069583;28;20239;-54
2023/10/13 03:12:21;;;;;;;25.67;12.93;;;18.20;99.90;;;;;;5066552;28;20423;-53
2023/10/13 03:14:49;;;;;;;24.07;13.43;;;18.30;99.90;;;;;;5067370;28;20251;-54
2023/10/13 03:17:19;;;;;;;29.03;13.87;;;18.20;99.90;;;;;;5066730;28;20702;-52
2023/10/13 03:19:49;;;;;;;26.53;13.60;;;18.30;99.90;;;;;;5068084;28;20258;-54
2023/10/13 03:22:30;;;;;;;24.57;13.33;;;18.20;99.90;;;;;;5065410;28;20556;-52
2023/10/13 03:25:04;;;;;;;23.83;13.47;;;18.20;99.90;;;;;;5066637;28;20188;-52
2023/10/13 03:27:40;;;;;;;26.30;13.17;;;18.20;99.90;;;;;;5065258;28;20241;-51
2023/10/13 03:30:14;;;;;;;23.23;12.63;;;18.20;99.90;;;;;;5062793;28;20692;-52
2023/10/13 03:32:46;;;;;;;21.13;12.10;;;18.20;99.90;;;;;;5064270;28;20215;-53
2023/10/13 03:35:23;;;;;;;24.33;13.07;;;18.20;99.90;;;;;;5066546;28;20251;-53
2023/10/13 03:37:52;;;;;;;28.13;13.10;;;18.20;99.90;;;;;;5062977;28;20224;-54
2023/10/13 03:43:11;;;;;;;20.90;12.50;;;18.20;99.90;;;;;;5060613;28;21866;-55
2023/10/13 03:45:42;;;;;;;22.33;12.07;;;18.20;99.90;;;;;;5062416;28;20308;-52
2023/10/13 03:48:27;;;;;;;20.27;11.63;;;18.20;99.90;;;;;;5060884;28;20216;-54
2023/10/13 03:51:06;;;;;;;24.43;12.60;;;18.20;99.90;;;;;;5064080;28;20566;-55
2023/10/13 03:53:50;;;;;;;22.67;11.77;;;18.20;99.90;;;;;;5065950;28;20286;-53
2023/10/13 03:56:27;;;;;;;18.17;11.03;;;18.20;99.90;;;;;;5067915;28;20212;-55
2023/10/13 03:59:04;;;;;;;23.93;11.50;;;18.20;99.90;;;;;;5067961;28;20725;-55
2023/10/13 04:01:40;;;;;;;24.23;11.40;;;18.20;99.90;;;;;;5065752;28;23503;-54
2023/10/13 04:04:11;;;;;;;19.67;11.17;;;18.20;99.90;;;;;;5065471;28;20276;-55
2023/10/13 04:07:13;;;;;;;22.73;11.20;;;18.20;99.90;;;;;;5069503;28;20223;-53
2023/10/13 04:15:23;;;;;;;22.23;11.27;;;18.20;99.90;;;;;;5023152;28;20305;-52
2023/10/13 04:17:51;;;;;;;20.70;11.37;;;18.20;99.90;;;;;;5065230;28;20224;-54
2023/10/13 04:20:32;;;;;;;25.17;11.30;;;18.20;99.90;;;;;;5062921;28;20702;-53
2023/10/13 04:23:25;;;;;;;23.97;10.73;;;18.10;99.90;;;;;;5066191;28;20225;-53
2023/10/13 04:26:08;;;;;;;29.73;11.37;;;18.10;99.90;;;;;;5067877;28;20236;-52
2023/10/13 04:28:50;;;;;;;26.60;11.20;;;18.10;99.90;;;;;;5072567;28;20749;-49
2023/10/13 04:34:15;;;;;;;21.30;11.13;;;18.00;99.90;;;;;;5065404;28;20234;-49
2023/10/13 04:36:46;;;;;;;22.27;10.70;;;18.00;99.90;;;;;;5065508;28;20274;-49
2023/10/13 04:39:29;;;;;;;32.37;11.20;;;18.00;99.90;;;;;;5065080;28;20211;-50
2023/10/13 04:41:57;;;;;;;24.77;11.23;;;18.00;99.90;;;;;;5083135;28;20224;-49
2023/10/13 04:47:21;;;;;;;22.53;10.90;;;18.00;99.90;;;;;;5063809;28;20231;-50
2023/10/13 04:49:52;;;;;;;19.93;10.73;;;18.00;99.90;;;;;;5074527;28;20238;-52
2023/10/13 04:52:50;;;;;;;24.67;10.87;;;18.00;99.90;;;;;;5067157;28;20185;-50
2023/10/13 04:58:14;;;;;;;24.43;10.33;;;18.00;99.90;;;;;;5067099;28;20861;-49
2023/10/13 05:01:09;;;;;;;35.37;11.03;;;18.00;99.90;;;;;;5066055;28;20240;-52
2023/10/13 05:04:21;;;;;;;29.27;10.20;;;18.00;99.90;;;;;;5069487;28;20216;-54
2023/10/13 05:49:07;;;;;;;20.63;9.67;;;18.10;99.90;;;;;;5062810;28;20228;-51
2023/10/13 05:51:33;;;;;;;24.30;9.83;;;18.10;99.90;;;;;;5064526;28;20219;-51
2023/10/13 06:30:10;;;;;;;21.47;8.80;;;18.10;99.90;;;;;;5065011;28;20227;-50
2023/10/13 06:32:39;;;;;;;19.70;8.60;;;18.10;99.90;;;;;;5070258;28;20299;-50
2023/10/13 06:35:18;;;;;;;20.63;8.43;;;18.10;99.90;;;;;;5066565;28;20235;-51
2023/10/13 06:37:48;;;;;;;17.20;8.60;;;18.10;99.90;;;;;;5063297;28;20219;-52
2023/10/13 06:40:32;;;;;;;22.47;8.57;;;18.00;99.90;;;;;;5068783;28;20200;-51
2023/10/13 06:43:16;;;;;;;25.47;8.60;;;18.00;99.90;;;;;;5064331;28;20245;-53
2023/10/13 06:45:50;;;;;;;20.50;9.07;;;18.10;99.90;;;;;;5068873;28;20530;-53
2023/10/13 06:48:19;;;;;;;19.77;8.13;;;18.10;99.90;;;;;;5063886;28;20311;-51
2023/10/13 06:50:52;;;;;;;24.73;8.17;;;18.10;99.90;;;;;;5068440;28;20842;-49
2023/10/13 06:53:21;;;;;;;20.43;8.23;;;18.10;99.90;;;;;;5069225;28;20844;-50
2023/10/13 06:55:52;;;;;;;25.90;7.60;;;18.20;99.90;;;;;;5064367;28;20228;-51
2023/10/13 06:58:23;;;;;;;23.47;6.73;;;18.30;99.90;;;;;;5068396;28;20212;-49
2023/10/13 07:00:58;;;;;;;15.30;7.20;;;18.30;99.90;;;;;;5061705;28;20202;-53
2023/10/13 07:03:26;;;;;;;24.07;7.77;;;18.30;99.90;;;;;;5059263;28;20331;-52
2023/10/13 07:05:58;;;;;;;19.77;6.83;;;18.30;99.90;;;;;;5062649;28;20213;-53
2023/10/13 07:08:30;;;;;;;14.47;6.07;;;18.40;99.90;;;;;;5063945;28;20587;-52
2023/10/13 07:11:05;;;;;;;14.60;6.83;;;18.50;99.90;;;;;;5070202;28;20225;-51
2023/10/13 07:13:37;;;;;;;13.80;6.87;;;18.50;99.90;;;;;;5065778;28;20206;-51
2023/10/13 07:16:12;;;;;;;20.10;7.00;;;18.60;99.90;;;;;;5065660;28;20535;-50
2023/10/13 07:18:56;;;;;;;16.77;6.83;;;18.60;99.90;;;;;;5064793;28;20701;-50
2023/10/13 07:21:31;;;;;;;15.07;6.90;;;18.60;99.90;;;;;;5057867;28;20238;-52
2023/10/13 07:24:08;;;;;;;13.53;6.83;;;18.70;99.90;;;;;;5063489;28;20708;-52
2023/10/13 07:26:42;;;;;;;23.13;7.37;;;18.70;99.90;;;;;;5066102;28;20222;-52
2023/10/13 07:29:12;;;;;;;19.73;7.03;;;18.70;99.90;;;;;;5060969;28;20223;-51
2023/10/13 07:31:44;;;;;;;19.50;6.23;;;18.80;99.90;;;;;;5066377;28;20212;-53
2023/10/13 07:34:24;;;;;;;19.23;7.23;;;18.80;99.90;;;;;;5069251;28;20281;-52
2023/10/13 07:36:58;;;;;;;18.57;6.47;;;18.90;99.90;;;;;;5067428;28;20609;-52
2023/10/13 07:39:33;;;;;;;16.47;7.00;;;18.90;99.90;;;;;;5063353;28;20564;-52
2023/10/13 07:42:15;;;;;;;19.23;6.43;;;19.10;99.90;;;;;;5058494;28;20231;-53
2023/10/13 07:44:45;;;;;;;17.10;6.07;;;19.20;99.90;;;;;;5060463;28;20721;-53
2023/10/13 07:47:17;;;;;;;16.50;6.03;;;19.30;99.90;;;;;;5063605;28;20307;-51
2023/10/13 07:49:50;;;;;;;17.80;6.40;;;19.40;99.90;;;;;;5066096;28;20693;-52
2023/10/13 07:52:26;;;;;;;16.43;6.00;;;19.50;99.90;;;;;;5066754;28;20216;-52
2023/10/13 07:55:10;;;;;;;16.37;6.07;;;19.60;99.90;;;;;;5067628;28;20291;-51
2023/10/13 07:57:54;;;;;;;18.83;5.80;;;19.70;99.90;;;;;;5067578;28;20300;-51
2023/10/13 08:00:28;;;;;;;14.93;5.73;;;19.70;99.90;;;;;;5067866;28;20223;-50
2023/10/13 08:03:08;;;;;;;10.30;6.03;;;19.80;99.90;;;;;;5064362;28;20212;-53
2023/10/13 08:05:55;;;;;;;19.57;6.00;;;19.90;99.90;;;;;;5059276;28;20237;-54
2023/10/13 08:08:25;;;;;;;14.63;6.27;;;20.00;99.90;;;;;;5062727;28;20224;-50
2023/10/13 08:10:56;;;;;;;16.07;6.23;;;20.00;99.90;;;;;;5065237;28;20687;-53
2023/10/13 08:13:26;;;;;;;18.20;6.30;;;20.00;99.90;;;;;;5066025;28;20200;-51
2023/10/13 08:15:59;;;;;;;18.87;5.80;;;19.90;99.90;;;;;;5065399;28;20280;-52
2023/10/13 08:18:31;;;;;;;13.37;6.17;;;20.00;99.90;;;;;;5068138;28;20212;-50
2023/10/13 08:21:03;;;;;;;12.87;5.80;;;20.00;99.90;;;;;;5058089;28;20225;-53
2023/10/13 08:23:57;;;;;;;14.47;6.50;;;20.00;99.90;;;;;;5064468;28;20244;-51
2023/10/13 08:26:29;;;;;;;13.53;6.00;;;20.10;99.90;;;;;;5068117;28;20235;-52
2023/10/13 08:29:53;;;;;;;21.70;6.37;;;20.10;99.90;;;;;;5065317;28;20965;-52
2023/10/13 08:32:04;;;;;;;19.50;6.60;;;20.00;99.90;;;;;;5056799;28;20722;-53
2023/10/13 08:34:39;;;;;;;12.47;5.97;;;20.00;99.90;;;;;;5067705;28;20216;-51
2023/10/13 08:37:28;;;;;;;14.37;5.87;;;20.10;99.90;;;;;;5065020;28;20666;-52
2023/10/13 08:43:09;;;;;;;11.33;5.93;;;20.10;99.90;;;;;;5066015;28;20216;-53
2023/10/13 08:45:58;;;;;;;18.13;6.50;;;20.10;99.90;;;;;;5063467;28;20218;-53
2023/10/13 08:48:32;;;;;;;11.80;5.97;;;20.10;99.90;;;;;;5069305;28;20224;-51
2023/10/13 08:51:09;;;;;;;11.43;6.43;;;20.20;99.90;;;;;;5063829;28;20224;-52
2023/10/13 08:53:52;;;;;;;14.17;6.20;;;20.30;99.90;;;;;;5072638;28;20236;-50
2023/10/13 08:56:33;;;;;;;8.93;5.70;;;20.40;99.90;;;;;;5069617;28;20217;-50
2023/10/13 08:59:09;;;;;;;7.93;5.60;;;20.40;99.90;;;;;;5068174;28;20709;-48
2023/10/13 09:01:45;;;;;;;16.70;6.03;;;20.40;99.90;;;;;;5068353;28;20247;-52
2023/10/13 09:04:22;;;;;;;16.20;6.13;;;20.50;99.90;;;;;;5064596;28;20224;-51
2023/10/13 09:07:15;;;;;;;12.20;6.30;;;20.50;99.90;;;;;;5066082;28;20298;-52
2023/10/13 09:13:00;;;;;;;11.53;6.10;;;20.40;99.90;;;;;;5067821;28;20772;-52
2023/10/13 09:18:46;;;;;;;16.73;6.73;;;20.50;99.90;;;;;;5068375;28;20220;-53
2023/10/13 09:26:47;;;;;;;9.47;6.03;;;20.50;99.90;;;;;;5068669;28;20229;-51
2023/10/13 09:29:18;;;;;;;16.13;6.30;;;20.60;99.90;;;;;;5067644;28;20220;-52
2023/10/13 09:32:03;;;;;;;15.10;6.13;;;20.60;99.90;;;;;;5067229;28;20326;-54
2023/10/13 09:34:33;;;;;;;9.30;5.33;;;20.60;99.90;;;;;;5070380;28;20189;-54
2023/10/13 09:37:04;;;;;;;14.03;5.43;;;20.60;99.90;;;;;;5066068;28;20227;-53
2023/10/13 09:39:44;;;;;;;19.10;5.77;;;20.60;99.90;;;;;;5066554;28;20218;-52
2023/10/13 09:42:18;;;;;;;12.43;5.80;;;20.60;99.90;;;;;;5066652;28;20560;-54
2023/10/13 09:44:55;;;;;;;12.97;6.07;;;20.50;99.90;;;;;;5069979;28;20691;-53
2023/10/13 09:47:32;;;;;;;14.63;5.63;;;20.50;99.90;;;;;;5070674;28;20224;-52
2023/10/13 09:50:05;;;;;;;15.07;6.20;;;20.50;99.90;;;;;;5068433;28;20223;-54
2023/10/13 09:52:37;;;;;;;20.90;7.30;;;20.50;99.90;;;;;;5059210;28;20215;-51
2023/10/13 09:55:18;;;;;;;16.83;6.37;;;20.50;99.90;;;;;;5064255;28;20200;-53
2023/10/13 09:57:58;;;;;;;21.00;6.70;;;20.50;99.90;;;;;;5045658;28;20234;-53
2023/10/13 10:00:46;;;;;;;24.07;7.00;;;20.50;99.90;;;;;;5062757;28;20240;-50
2023/10/13 10:03:29;;;;;;;14.53;6.13;;;20.60;99.90;;;;;;5064540;28;20317;-52
2023/10/13 10:06:03;;;;;;;17.07;6.37;;;20.60;99.90;;;;;;5063830;28;20235;-51
2023/10/13 10:08:33;;;;;;;13.07;5.87;;;20.70;99.90;;;;;;5063873;28;20218;-50
2023/10/13 10:11:16;;;;;;;10.57;5.80;;;20.70;99.90;;;;;;5063565;28;20222;-50
2023/10/13 10:13:58;;;;;;;20.80;6.73;;;20.80;99.90;;;;;;5067262;28;20215;-53
2023/10/13 10:16:41;;;;;;;17.90;6.50;;;20.80;99.90;;;;;;5069021;28;20269;-51
2023/10/13 10:19:10;;;;;;;16.57;6.53;;;20.80;99.90;;;;;;5064873;28;20545;-52
2023/10/13 10:21:41;;;;;;;14.57;6.20;;;20.90;99.90;;;;;;5062793;28;20271;-52
2023/10/13 10:24:23;;;;;;;18.20;6.67;;;21.00;99.90;;;;;;5062886;28;20237;-52
2023/10/13 10:26:52;;;;;;;17.50;6.17;;;21.00;99.90;;;;;;5064584;28;20709;-50
2023/10/13 10:29:21;;;;;;;13.70;6.13;;;21.00;99.90;;;;;;5068061;28;20228;-51
2023/10/13 10:31:51;;;;;;;18.30;6.67;;;21.00;99.90;;;;;;5069400;28;20323;-53
2023/10/13 10:34:20;;;;;;;19.20;6.53;;;21.10;99.90;;;;;;5061033;28;20189;-51
2023/10/13 10:36:55;;;;;;;14.93;6.10;;;21.10;99.90;;;;;;5065955;28;20181;-51
2023/10/13 10:39:44;;;;;;;17.07;6.00;;;21.20;99.90;;;;;;5080928;28;20233;-52
2023/10/13 10:42:17;;;;;;;11.43;6.60;;;21.20;99.90;;;;;;5064251;28;20213;-53
2023/10/13 10:44:47;;;;;;;19.03;6.33;;;21.20;99.90;;;;;;5064760;28;20287;-49
2023/10/13 10:47:30;;;;;;;15.30;5.77;;;21.30;99.90;;;;;;5065546;28;20233;-48
2023/10/13 10:50:07;;;;;;;14.73;6.80;;;21.20;99.90;;;;;;5065902;28;20354;-51
2023/10/13 10:52:39;;;;;;;16.57;6.00;;;21.30;99.90;;;;;;5061576;28;20262;-51
2023/10/13 10:55:09;;;;;;;20.83;6.83;;;21.30;99.90;;;;;;5067871;28;20192;-50
2023/10/13 10:57:38;;;;;;;19.17;6.20;;;21.30;99.90;;;;;;5068398;28;20229;-55
2023/10/13 11:00:20;;;;;;;17.73;6.20;;;21.30;99.90;;;;;;5066834;28;20312;-52
2023/10/13 11:02:55;;;;;;;17.53;6.80;;;21.30;99.90;;;;;;5063598;28;20225;-51
2023/10/13 11:05:32;;;;;;;17.37;6.47;;;21.40;99.90;;;;;;5058188;28;20707;-53
2023/10/13 11:08:09;;;;;;;17.90;6.40;;;21.40;99.90;;;;;;5063118;28;20273;-50
2023/10/13 11:10:38;;;;;;;15.03;6.30;;;21.40;99.90;;;;;;5060334;28;20181;-51
2023/10/13 11:13:14;;;;;;;17.83;6.57;;;21.40;99.90;;;;;;5065463;28;20242;-52
2023/10/13 11:15:44;;;;;;;21.90;6.50;;;21.40;99.90;;;;;;5065213;28;20266;-50
2023/10/13 11:18:20;;;;;;;19.37;7.00;;;21.50;99.90;;;;;;5060300;28;20968;-53
2023/10/13 11:20:54;;;;;;;20.10;6.93;;;21.70;99.90;;;;;;5063183;28;20234;-52
2023/10/13 11:23:25;;;;;;;22.67;7.30;;;21.80;99.90;;;;;;5057474;28;20222;-50
2023/10/13 11:25:58;;;;;;;17.80;6.27;;;21.80;99.90;;;;;;5058690;28;20281;-50
2023/10/13 11:28:28;;;;;;;15.97;6.10;;;21.90;99.90;;;;;;5064790;28;20194;-51
2023/10/13 11:30:58;;;;;;;23.27;6.53;;;22.00;99.90;;;;;;5059596;28;20224;-51
2023/10/13 11:33:28;;;;;;;15.77;6.23;;;22.10;99.90;;;;;;5064601;28;20306;-52
2023/10/13 11:36:01;;;;;;;19.90;6.50;;;22.20;99.90;;;;;;5064119;28;20214;-52
2023/10/13 11:38:42;;;;;;;16.73;6.20;;;22.20;99.90;;;;;;5063788;28;20221;-52
2023/10/13 11:41:19;;;;;;;17.60;6.23;;;22.20;99.90;;;;;;5060114;28;20226;-54
2023/10/13 11:44:12;;;;;;;17.33;6.83;;;22.30;99.90;;;;;;5060265;28;20301;-53
2023/10/13 11:49:36;;;;;;;22.77;7.07;;;22.30;99.90;;;;;;5060522;28;20708;-52
2023/10/13 11:54:55;;;;;;;17.50;5.97;;;22.50;99.90;;;;;;5053056;28;20643;-52
2023/10/13 11:57:24;;;;;;;22.33;6.53;;;22.50;99.90;;;;;;5062738;28;20214;-51
2023/10/13 11:59:56;;;;;;;18.93;5.97;;;22.40;99.90;;;;;;5060043;28;20680;-52
2023/10/13 12:05:13;;;;;;;22.23;7.10;;;22.30;99.90;;;;;;5059924;28;20299;-52
2023/10/13 12:07:48;;;;;;;16.97;6.13;;;22.30;99.90;;;;;;5066454;28;20308;-51
2023/10/13 12:10:33;;;;;;;9.40;6.03;;;22.30;99.90;;;;;;5062054;28;20225;-52
2023/10/13 12:13:08;;;;;;;15.70;6.07;;;22.20;99.90;;;;;;5059728;28;20716;-53
2023/10/13 12:15:51;;;;;;;18.47;5.97;;;22.20;99.90;;;;;;5059114;28;20252;-53
2023/10/13 12:18:22;;;;;;;16.33;6.10;;;22.20;99.90;;;;;;5062394;28;20562;-51
2023/10/13 12:20:51;;;;;;;15.37;6.17;;;22.20;99.90;;;;;;5065577;28;20236;-50
2023/10/13 12:23:29;;;;;;;14.30;5.67;;;22.20;99.90;;;;;;5063399;28;20754;-51
2023/10/13 12:26:06;;;;;;;14.03;6.07;;;22.20;99.90;;;;;;5067642;28;20228;-52
2023/10/13 12:28:40;;;;;;;13.87;6.20;;;22.20;99.90;;;;;;5064890;28;20276;-52
2023/10/13 12:31:11;;;;;;;16.87;5.90;;;22.30;99.90;;;;;;5068667;28;20281;-51
2023/10/13 12:33:41;;;;;;;12.93;5.60;;;22.30;99.90;;;;;;5068108;28;20214;-54
2023/10/13 12:36:27;;;;;;;17.10;6.10;;;22.40;99.90;;;;;;5066735;28;20244;-53
2023/10/13 12:50:26;;;;;;;11.40;6.13;;;22.70;99.90;;;;;;5065979;28;20303;-52
2023/10/13 12:52:54;;;;;;;18.70;5.83;;;22.70;99.90;;;;;;5064770;28;20314;-50
2023/10/13 12:55:24;;;;;;;19.57;6.40;;;22.60;99.90;;;;;;5065283;28;20200;-48
2023/10/13 12:57:54;;;;;;;10.50;5.90;;;22.60;99.90;;;;;;5066499;28;20186;-53
2023/10/13 13:00:32;;;;;;;14.67;6.30;;;22.50;99.90;;;;;;5061498;28;20222;-52
2023/10/13 13:03:11;;;;;;;19.70;5.97;;;22.50;99.90;;;;;;5063200;28;20637;-52
2023/10/13 13:05:44;;;;;;;11.97;5.63;;;22.50;99.90;;;;;;5063935;28;20591;-50
2023/10/13 13:08:21;;;;;;;13.93;6.20;;;22.50;99.90;;;;;;5065668;28;20252;-53
2023/10/13 13:10:51;;;;;;;12.30;6.10;;;22.60;99.90;;;;;;5060948;28;20223;-49
2023/10/13 13:13:25;;;;;;;16.10;5.90;;;22.60;99.90;;;;;;5061811;28;20190;-51
2023/10/13 13:15:54;;;;;;;12.57;5.97;;;22.60;99.90;;;;;;5065390;28;20272;-52
2023/10/13 13:18:22;;;;;;;12.13;5.23;;;22.70;99.90;;;;;;5064904;28;20221;-54
2023/10/13 13:20:54;;;;;;;10.93;5.60;;;22.60;99.90;;;;;;5068124;28;20227;-52
2023/10/13 13:23:25;;;;;;;12.60;5.50;;;22.60;99.90;;;;;;5065927;28;20577;-53
2023/10/13 13:25:56;;;;;;;11.23;5.90;;;22.60;99.90;;;;;;5066355;28;20308;-49
2023/10/13 13:28:28;;;;;;;13.73;5.67;;;22.70;99.90;;;;;;5067680;28;20215;-52
2023/10/13 13:30:58;;;;;;;13.97;5.60;;;22.70;99.90;;;;;;5068803;28;20188;-51
2023/10/13 13:33:33;;;;;;;11.83;6.03;;;22.70;99.90;;;;;;5066891;28;20226;-54
2023/10/13 13:36:01;;;;;;;12.13;5.70;;;22.60;99.90;;;;;;5062926;28;20244;-50
2023/10/13 13:38:31;;;;;;;11.50;6.37;;;22.70;99.90;;;;;;5067673;28;20233;-50
2023/10/13 13:41:02;;;;;;;16.07;6.20;;;22.70;99.90;;;;;;5065179;28;20214;-52
2023/10/13 13:43:37;;;;;;;17.83;5.60;;;22.70;99.90;;;;;;5068768;28;20794;-51
2023/10/13 13:46:09;;;;;;;13.27;6.10;;;22.70;99.90;;;;;;5063609;28;20198;-52
2023/10/13 13:48:39;;;;;;;12.23;5.60;;;22.80;99.90;;;;;;5061144;28;20223;-52
2023/10/13 13:51:14;;;;;;;10.43;5.20;;;22.80;99.90;;;;;;5064129;28;20270;-52
2023/10/13 13:53:45;;;;;;;12.20;5.73;;;22.90;99.90;;;;;;5067068;28;20237;-52
2023/10/13 13:56:16;;;;;;;10.17;5.73;;;22.80;99.90;;;;;;5068133;28;20222;-53
2023/10/13 13:58:47;;;;;;;13.00;5.70;;;22.80;99.90;;;;;;5068448;28;20220;-52
2023/10/13 14:01:18;;;;;;;13.03;6.13;;;22.80;99.90;;;;;;5069700;28;20313;-51
2023/10/13 14:03:50;;;;;;;14.37;5.97;;;22.60;99.90;;;;;;5066271;28;20719;-53
2023/10/13 14:06:23;;;;;;;15.33;5.73;;;22.60;99.90;;;;;;5061218;28;20230;-53
2023/10/13 14:08:56;;;;;;;11.83;5.63;;;22.50;99.90;;;;;;5060981;28;20216;-53
2023/10/13 14:14:28;;;;;;;11.50;5.57;;;22.40;99.90;;;;;;5063723;28;20298;-52
2023/10/13 14:17:06;;;;;;;16.43;5.90;;;22.40;99.90;;;;;;5065873;28;20231;-51
2023/10/13 14:19:40;;;;;;;17.90;5.70;;;22.30;99.90;;;;;;5067097;28;20220;-51
2023/10/13 14:22:12;;;;;;;14.37;5.53;;;22.30;99.90;;;;;;5065631;28;20197;-52
2023/10/13 14:24:51;;;;;;;11.37;5.70;;;22.30;99.90;;;;;;5064814;28;20221;-50
2023/10/13 14:27:22;;;;;;;14.87;5.13;;;22.40;99.90;;;;;;5060867;28;20899;-52
2023/10/13 14:29:57;;;;;;;11.40;5.60;;;22.30;99.90;;;;;;5061893;28;20218;-52
2023/10/13 14:32:27;;;;;;;10.53;5.77;;;22.30;99.90;;;;;;5061002;28;20224;-53
2023/10/13 14:34:56;;;;;;;17.47;6.23;;;22.30;99.90;;;;;;5064452;28;20309;-51
2023/10/13 14:37:29;;;;;;;14.60;5.20;;;22.40;99.90;;;;;;5066992;28;20277;-53
2023/10/13 14:39:59;;;;;;;11.40;5.93;;;22.30;99.90;;;;;;5058688;28;20216;-51
2023/10/13 14:42:35;;;;;;;14.87;5.43;;;22.30;99.90;;;;;;5060067;28;20229;-52
2023/10/13 14:45:12;;;;;;;12.10;5.50;;;22.30;99.90;;;;;;5062860;28;20273;-53
2023/10/13 14:47:41;;;;;;;12.80;5.43;;;22.20;99.90;;;;;;5066011;28;20692;-49
2023/10/13 14:50:19;;;;;;;12.87;5.10;;;22.20;99.90;;;;;;5062383;28;20232;-54
2023/10/13 14:52:48;;;;;;;12.30;5.70;;;22.20;99.90;;;;;;5065840;28;20356;-52
2023/10/13 14:55:19;;;;;;;12.60;6.13;;;22.20;99.90;;;;;;5061235;28;20282;-52
2023/10/13 14:57:49;;;;;;;13.27;5.73;;;22.10;99.90;;;;;;5064806;28;20704;-53
2023/10/13 15:00:25;;;;;;;15.17;6.03;;;22.00;99.90;;;;;;5066658;28;20228;-54
2023/10/13 15:02:54;;;;;;;17.47;6.53;;;22.00;99.90;;;;;;5063627;28;20261;-53
2023/10/13 15:05:24;;;;;;;12.07;5.50;;;22.00;99.90;;;;;;5064038;28;20224;-50
2023/10/13 15:07:52;;;;;;;14.63;6.40;;;22.00;99.90;;;;;;5070186;28;20217;-52
2023/10/13 15:10:20;;;;;;;15.57;5.43;;;21.90;99.90;;;;;;5063367;28;20282;-52
2023/10/13 15:12:49;;;;;;;11.77;6.20;;;22.00;99.90;;;;;;5063384;28;21390;-54
2023/10/13 15:15:19;;;;;;;12.30;5.77;;;22.00;99.90;;;;;;5063864;28;20230;-52
2023/10/13 15:17:50;;;;;;;12.43;6.33;;;22.00;99.90;;;;;;5063375;28;20275;-51
2023/10/13 15:20:18;;;;;;;14.37;5.80;;;21.90;99.90;;;;;;5063621;28;20229;-54
2023/10/13 15:22:48;;;;;;;13.90;5.53;;;21.90;99.90;;;;;;5061934;28;20234;-52
2023/10/13 15:25:28;;;;;;;15.73;6.03;;;21.90;99.90;;;;;;5073011;28;20556;-52
2023/10/13 15:28:02;;;;;;;14.70;5.40;;;21.90;99.90;;;;;;5066908;28;20221;-52
2023/10/13 15:30:43;;;;;;;15.00;5.97;;;21.90;99.90;;;;;;5060872;28;20291;-53